createdAt,value
2019-03-16T00:00:51.817Z,2.45
2019-03-16T00:03:44.616Z,1.77
2019-03-16T00:06:37.672Z,1.90
2019-03-16T00:09:34.568Z,2.33
2019-03-16T00:12:27.624Z,1.80
2019-03-16T00:15:20.422Z,2.15
2019-03-16T00:18:13.478Z,2.20
2019-03-16T00:21:06.538Z,1.87
2019-03-16T00:23:59.599Z,1.90
2019-03-16T00:26:52.911Z,1.82
2019-03-16T00:29:45.963Z,1.85
2019-03-16T00:32:39.019Z,2.10
2019-03-16T00:35:31.819Z,1.98
2019-03-16T00:38:23.432Z,1.85
2019-03-16T00:41:13.837Z,2.00
2019-03-16T00:44:06.889Z,2.35
2019-03-16T00:46:59.689Z,2.20
2019-03-16T00:49:52.516Z,1.75
2019-03-16T00:52:45.287Z,2.77
2019-03-16T00:55:39.111Z,2.27
2019-03-16T00:58:31.917Z,2.62
2019-03-16T01:01:32.139Z,2.00
2019-03-16T01:04:24.938Z,2.05
2019-03-16T01:07:17.736Z,2.00
2019-03-16T01:10:10.537Z,1.80
2019-03-16T01:13:03.591Z,2.37
2019-03-16T01:15:56.658Z,1.77
2019-03-16T01:18:49.702Z,1.55
2019-03-16T01:21:42.503Z,2.60
2019-03-16T01:24:35.314Z,2.67
2019-03-16T01:27:28.105Z,2.02
2019-03-16T01:30:21.164Z,1.82
2019-03-16T01:33:10.632Z,1.67
2019-03-16T01:36:03.689Z,1.95
2019-03-16T01:38:56.745Z,2.12
2019-03-16T01:41:49.812Z,1.62
2019-03-16T01:44:42.856Z,1.30
2019-03-16T01:47:35.912Z,1.87
2019-03-16T01:50:28.968Z,1.65
2019-03-16T01:53:22.028Z,1.65
2019-03-16T01:56:16.107Z,1.52
2019-03-16T01:59:09.421Z,1.92
2019-03-16T02:02:03.497Z,1.47
2019-03-16T02:04:56.298Z,2.87
2019-03-16T02:07:50.378Z,1.82
2019-03-16T02:10:43.433Z,1.70
2019-03-16T02:13:30.855Z,1.65
2019-03-16T02:16:23.911Z,1.32
2019-03-16T02:19:16.972Z,1.92
2019-03-16T02:22:10.791Z,1.42
2019-03-16T02:25:03.847Z,1.17
2019-03-16T02:27:56.652Z,1.20
2019-03-16T02:30:49.704Z,1.35
2019-03-16T02:33:42.503Z,1.67
2019-03-16T02:36:35.306Z,1.62
2019-03-16T02:39:28.873Z,1.10
2019-03-16T02:42:21.933Z,1.12
2019-03-16T02:45:11.120Z,1.50
2019-03-16T02:48:04.201Z,1.30
2019-03-16T02:51:00.073Z,1.40
2019-03-16T02:53:53.390Z,1.25
2019-03-16T02:56:46.440Z,1.30
2019-03-16T02:59:35.958Z,1.27
2019-03-16T03:02:28.972Z,1.57
2019-03-16T03:05:22.030Z,1.20
2019-03-16T03:08:15.342Z,1.20
2019-03-16T03:11:08.392Z,1.35
2019-03-16T03:14:01.449Z,1.15
2019-03-16T03:16:55.531Z,1.10
2019-03-16T03:19:53.450Z,1.35
2019-03-16T03:22:46.509Z,1.07
2019-03-16T03:25:39.623Z,1.60
2019-03-16T03:28:32.878Z,1.17
2019-03-16T03:31:26.445Z,1.20
2019-03-16T03:34:19.501Z,0.93
2019-03-16T03:37:12.557Z,1.20
2019-03-16T03:40:05.612Z,1.85
2019-03-16T03:42:58.671Z,1.40
2019-03-16T03:45:52.491Z,1.30
2019-03-16T03:48:45.546Z,1.22
2019-03-16T03:51:38.870Z,1.10
2019-03-16T03:54:31.918Z,1.50
2019-03-16T03:57:24.970Z,1.20
2019-03-16T04:00:14.442Z,1.10
2019-03-16T04:03:08.532Z,1.37
2019-03-16T04:06:01.578Z,1.50
2019-03-16T04:08:54.888Z,0.90
2019-03-16T04:11:47.950Z,0.90
2019-03-16T04:14:41.517Z,0.90
2019-03-16T04:17:34.576Z,0.82
2019-03-16T04:20:27.882Z,1.50
2019-03-16T04:23:20.954Z,0.95
2019-03-16T04:26:13.736Z,1.00
2019-03-16T04:29:03.089Z,1.07
2019-03-16T04:31:52.461Z,1.00
2019-03-16T04:34:45.486Z,0.78
2019-03-16T04:37:38.280Z,1.22
2019-03-16T04:40:34.409Z,0.70
2019-03-16T04:43:27.470Z,0.93
2019-03-16T04:46:20.783Z,0.68
2019-03-16T04:49:13.832Z,0.70
2019-03-16T04:52:06.888Z,0.70
2019-03-16T04:54:59.948Z,0.82
2019-03-16T04:57:53.000Z,0.70
2019-03-16T05:00:46.058Z,0.93
2019-03-16T05:03:39.110Z,0.60
2019-03-16T05:06:32.179Z,0.90
2019-03-16T05:09:25.569Z,0.80
2019-03-16T05:12:19.303Z,0.90
2019-03-16T05:15:12.359Z,0.70
2019-03-16T05:18:05.416Z,0.60
2019-03-16T05:20:58.986Z,0.80
2019-03-16T05:23:51.788Z,0.85
2019-03-16T05:26:44.841Z,0.70
2019-03-16T05:29:38.154Z,0.70
2019-03-16T05:32:31.211Z,0.90
2019-03-16T05:35:24.264Z,0.60
2019-03-16T05:38:18.091Z,1.00
2019-03-16T05:41:11.145Z,1.00
2019-03-16T05:44:04.199Z,1.02
2019-03-16T05:46:57.257Z,0.90
2019-03-16T05:49:51.080Z,0.70
2019-03-16T05:52:44.136Z,0.62
2019-03-16T05:55:36.943Z,1.20
2019-03-16T05:58:29.996Z,1.00
2019-03-16T06:01:22.791Z,0.80
2019-03-16T06:04:15.594Z,1.12
2019-03-16T06:07:05.957Z,1.05
2019-03-16T06:09:58.888Z,0.80
2019-03-16T06:12:51.690Z,0.82
2019-03-16T06:15:44.743Z,0.95
2019-03-16T06:18:37.548Z,1.00
2019-03-16T06:21:26.868Z,1.52
2019-03-16T06:24:19.821Z,0.95
2019-03-16T06:27:12.875Z,1.10
2019-03-16T06:30:06.197Z,0.98
2019-03-16T06:33:00.263Z,1.07
2019-03-16T06:35:48.716Z,0.93
2019-03-16T06:38:42.795Z,0.95
2019-03-16T06:41:35.848Z,1.07
2019-03-16T06:44:29.674Z,1.30
2019-03-16T06:47:23.282Z,1.30
2019-03-16T06:50:15.786Z,1.50
2019-03-16T06:53:09.094Z,1.07
2019-03-16T06:56:02.409Z,1.42
2019-03-16T06:58:58.352Z,1.10
2019-03-16T07:01:48.261Z,1.60
2019-03-16T07:04:41.073Z,1.00
2019-03-16T07:07:34.376Z,1.15
2019-03-16T07:10:23.592Z,1.10
2019-03-16T07:13:16.392Z,1.35
2019-03-16T07:16:09.192Z,1.20
2019-03-16T07:19:02.250Z,1.02
2019-03-16T07:21:55.822Z,1.40
2019-03-16T07:24:51.618Z,1.30
2019-03-16T07:27:42.186Z,0.95
2019-03-16T07:30:37.375Z,0.85
2019-03-16T07:33:29.832Z,1.00
2019-03-16T07:36:22.888Z,1.25
2019-03-16T07:39:08.400Z,0.90
2019-03-16T07:42:01.834Z,1.27
2019-03-16T07:45:07.263Z,1.20
2019-03-16T07:47:47.943Z,1.02
2019-03-16T07:50:41.003Z,1.00
2019-03-16T07:53:34.057Z,1.10
2019-03-16T07:56:27.369Z,1.42
2019-03-16T07:59:20.425Z,0.98
2019-03-16T08:02:14.250Z,1.32
2019-03-16T08:05:16.926Z,0.90
2019-03-16T08:07:56.776Z,1.47
2019-03-16T08:10:49.832Z,1.07
2019-03-16T08:13:42.892Z,1.37
2019-03-16T08:16:36.201Z,1.10
2019-03-16T08:19:29.511Z,1.12
2019-03-16T08:22:23.857Z,0.80
2019-03-16T08:25:16.647Z,1.00
2019-03-16T08:28:06.091Z,1.07
2019-03-16T08:30:59.689Z,1.07
2019-03-16T08:33:52.745Z,1.10
2019-03-16T08:36:45.800Z,1.00
2019-03-16T08:39:38.867Z,1.10
2019-03-16T08:42:31.915Z,0.95
2019-03-16T08:45:25.230Z,1.20
2019-03-16T08:48:22.968Z,1.60
2019-03-16T08:51:11.336Z,0.80
2019-03-16T08:54:04.135Z,1.22
2019-03-16T08:56:57.203Z,1.15
2019-03-16T08:59:50.251Z,1.00
2019-03-16T09:02:43.310Z,1.05
2019-03-16T09:05:36.367Z,0.95
2019-03-16T09:08:29.415Z,1.20
2019-03-16T09:11:22.217Z,0.80
2019-03-16T09:14:15.281Z,1.10
2019-03-16T09:17:09.166Z,1.35
2019-03-16T09:20:01.387Z,0.98
2019-03-16T09:25:55.817Z,0.82
2019-03-16T09:28:59.535Z,0.90
2019-03-16T09:31:42.823Z,1.05
2019-03-16T09:34:36.906Z,1.57
2019-03-16T09:37:29.959Z,1.05
2019-03-16T09:40:23.020Z,0.82
2019-03-16T09:43:16.846Z,0.82
2019-03-16T09:46:10.670Z,1.00
2019-03-16T09:49:03.465Z,0.98
2019-03-16T09:51:56.519Z,0.70
2019-03-16T09:54:49.574Z,0.88
2019-03-16T09:57:43.142Z,1.00
2019-03-16T10:00:36.460Z,0.93
2019-03-16T10:03:29.827Z,0.90
2019-03-16T10:06:23.080Z,1.00
2019-03-16T10:09:12.807Z,1.00
2019-03-16T10:12:05.865Z,0.70
2019-03-16T10:14:59.950Z,1.02
2019-03-16T10:17:53.018Z,1.20
2019-03-16T10:20:46.062Z,0.98
2019-03-16T10:23:38.863Z,1.10
2019-03-16T10:26:31.666Z,1.20
2019-03-16T10:29:21.170Z,0.95
2019-03-16T10:32:14.188Z,0.90
2019-03-16T10:35:07.500Z,1.07
2019-03-16T10:37:56.969Z,1.32
2019-03-16T10:40:49.775Z,1.42
2019-03-16T10:43:43.081Z,1.98
2019-03-16T10:46:36.137Z,1.27
2019-03-16T10:49:29.449Z,1.70
2019-03-16T10:52:22.764Z,1.45
2019-03-16T10:55:15.815Z,2.00
2019-03-16T10:58:09.136Z,2.00
2019-03-16T11:01:02.193Z,1.70
2019-03-16T11:03:56.016Z,1.57
2019-03-16T11:06:48.814Z,1.67
2019-03-16T11:09:41.865Z,1.50
2019-03-16T11:12:34.922Z,1.60
2019-03-16T11:15:28.230Z,1.55
2019-03-16T11:18:21.545Z,1.55
2019-03-16T11:21:14.606Z,1.55
2019-03-16T11:24:07.655Z,1.55
2019-03-16T11:27:08.157Z,1.80
2019-03-16T11:30:04.010Z,1.50
2019-03-16T11:32:56.809Z,1.17
2019-03-16T11:35:50.121Z,2.00
2019-03-16T11:38:43.688Z,1.27
2019-03-16T11:41:36.747Z,1.10
2019-03-16T11:44:29.809Z,1.52
2019-03-16T11:47:23.122Z,1.35
2019-03-16T11:50:16.181Z,1.57
2019-03-16T11:53:09.484Z,1.60
2019-03-16T11:56:02.535Z,1.60
2019-03-16T11:58:55.595Z,1.65
2019-03-16T12:01:48.651Z,2.12
2019-03-16T12:04:41.704Z,2.10
2019-03-16T12:07:35.019Z,2.20
2019-03-16T12:10:28.840Z,1.90
2019-03-16T12:13:21.648Z,2.37
2019-03-16T12:16:14.442Z,2.25
2019-03-16T12:19:07.753Z,1.90
2019-03-16T12:22:01.064Z,1.67
2019-03-16T12:24:54.121Z,2.22
2019-03-16T12:27:48.204Z,2.22
2019-03-16T12:30:42.280Z,2.20
2019-03-16T12:33:35.334Z,1.87
2019-03-16T12:36:28.396Z,1.60
2019-03-16T12:39:21.447Z,1.92
2019-03-16T12:42:14.247Z,2.08
2019-03-16T12:45:15.503Z,1.37
2019-03-16T12:48:03.048Z,1.47
2019-03-16T12:50:54.522Z,1.85
2019-03-16T12:53:46.241Z,1.60
2019-03-16T12:56:39.273Z,1.65
2019-03-16T12:59:32.591Z,1.60
2019-03-16T13:02:25.912Z,1.22
2019-03-16T13:05:18.956Z,1.52
2019-03-16T13:08:13.289Z,1.72
2019-03-16T13:11:07.623Z,1.70
2019-03-16T13:14:00.681Z,0.98
2019-03-16T13:16:53.737Z,1.50
2019-03-16T13:19:46.535Z,1.60
2019-03-16T13:22:41.383Z,1.32
2019-03-16T13:25:35.464Z,1.10
2019-03-16T13:28:28.523Z,1.40
2019-03-16T13:31:21.579Z,1.20
2019-03-16T13:34:14.632Z,1.25
2019-03-16T13:37:07.694Z,1.00
2019-03-16T13:40:00.755Z,1.25
2019-03-16T13:42:53.807Z,1.42
2019-03-16T13:45:46.855Z,1.05
2019-03-16T13:48:40.937Z,1.40
2019-03-16T13:51:30.152Z,0.88
2019-03-16T13:54:17.576Z,1.52
2019-03-16T13:57:11.403Z,1.32
2019-03-16T14:00:11.800Z,1.22
2019-03-16T14:02:57.769Z,1.05
2019-03-16T14:05:51.591Z,1.80
2019-03-16T14:08:44.651Z,1.55
2019-03-16T14:11:37.962Z,1.10
2019-03-16T14:14:31.273Z,1.47
2019-03-16T14:17:24.585Z,1.55
2019-03-16T14:20:17.648Z,1.42
2019-03-16T14:23:10.696Z,1.60
2019-03-16T14:25:58.122Z,1.40
2019-03-16T14:28:51.182Z,1.42
2019-03-16T14:31:44.233Z,1.12
2019-03-16T14:34:37.289Z,1.20
2019-03-16T14:37:30.344Z,1.30
2019-03-16T14:40:19.616Z,1.07
2019-03-16T14:43:12.616Z,1.22
2019-03-16T14:46:05.927Z,1.07
2019-03-16T14:48:58.988Z,1.82
2019-03-16T14:51:51.794Z,1.92
2019-03-16T14:54:45.096Z,1.20
2019-03-16T14:57:38.414Z,1.10
2019-03-16T15:00:38.215Z,0.80
2019-03-16T15:03:25.035Z,1.07
2019-03-16T15:06:18.090Z,1.45
2019-03-16T15:09:10.894Z,1.10
2019-03-16T15:12:03.947Z,0.98
2019-03-16T15:14:56.745Z,1.00
2019-03-16T15:17:57.226Z,1.45
2019-03-16T15:20:50.026Z,2.02
2019-03-16T15:23:43.084Z,1.17
2019-03-16T15:26:36.136Z,0.85
2019-03-16T15:29:31.335Z,1.20
2019-03-16T15:32:23.015Z,0.95
2019-03-16T15:35:16.071Z,1.00
2019-03-16T15:38:09.127Z,1.20
2019-03-16T15:40:58.261Z,1.00
2019-03-16T15:43:51.401Z,0.70
2019-03-16T15:46:44.203Z,1.50
2019-03-16T15:49:37.254Z,1.40
2019-03-16T15:52:30.056Z,1.17
2019-03-16T15:55:23.368Z,1.30
2019-03-16T15:58:17.448Z,1.15
2019-03-16T16:01:10.249Z,1.37
2019-03-16T16:04:03.307Z,1.52
2019-03-16T16:06:56.363Z,1.22
2019-03-16T16:09:49.420Z,1.00
2019-03-16T16:12:42.736Z,1.20
2019-03-16T16:15:35.787Z,0.72
2019-03-16T16:18:28.847Z,1.00
2019-03-16T16:21:21.643Z,0.70
2019-03-16T16:24:14.697Z,1.12
2019-03-16T16:27:07.751Z,1.02
2019-03-16T16:30:00.553Z,1.40
2019-03-16T16:32:53.620Z,1.20
2019-03-16T16:35:46.673Z,1.05
2019-03-16T16:38:34.026Z,2.35
2019-03-16T16:41:27.144Z,1.10
2019-03-16T16:44:27.627Z,1.00
2019-03-16T16:47:20.934Z,1.22
2019-03-16T16:50:13.991Z,0.90
2019-03-16T16:53:07.817Z,1.20
2019-03-16T16:56:00.620Z,1.00
2019-03-16T16:58:53.950Z,1.22
2019-03-16T17:01:46.984Z,1.15
2019-03-16T17:04:39.787Z,1.22
2019-03-16T17:07:32.587Z,1.60
2019-03-16T17:10:26.151Z,1.40
2019-03-16T17:13:19.466Z,1.32
2019-03-16T17:16:12.265Z,1.57
2019-03-16T17:19:05.579Z,1.90
2019-03-16T17:21:54.729Z,1.85
2019-03-16T17:24:47.854Z,1.42
2019-03-16T17:27:49.863Z,1.45
2019-03-16T17:30:42.923Z,1.57
2019-03-16T17:33:37.258Z,1.40
2019-03-16T17:36:30.327Z,1.70
2019-03-16T17:39:23.370Z,1.52
2019-03-16T17:42:12.854Z,2.30
2019-03-16T17:45:06.154Z,1.12
2019-03-16T17:47:58.953Z,1.25
2019-03-16T17:50:52.009Z,1.70
2019-03-16T17:53:46.984Z,1.40
2019-03-16T17:56:38.120Z,2.40
2019-03-16T17:59:32.202Z,1.65
2019-03-16T18:02:25.511Z,1.75
2019-03-16T18:05:18.567Z,1.35
2019-03-16T18:08:12.140Z,1.62
2019-03-16T18:11:05.964Z,1.87
2019-03-16T18:13:59.272Z,2.60
2019-03-16T18:16:52.329Z,2.12
2019-03-16T18:19:45.393Z,1.80
2019-03-16T18:23:47.052Z,2.30
2019-03-16T18:26:40.386Z,2.30
2019-03-16T18:29:42.635Z,1.82
2019-03-16T18:32:35.691Z,2.00
2019-03-16T18:35:29.773Z,1.60
2019-03-16T18:38:24.110Z,2.00
2019-03-16T18:41:17.418Z,1.57
2019-03-16T18:44:06.740Z,2.40
2019-03-16T18:46:59.688Z,1.98
2019-03-16T18:49:52.753Z,1.57
2019-03-16T18:52:45.803Z,2.08
2019-03-16T18:55:38.602Z,2.20
2019-03-16T18:58:37.058Z,2.33
2019-03-16T19:01:25.997Z,1.80
2019-03-16T19:04:16.263Z,1.50
2019-03-16T19:07:09.292Z,2.55
2019-03-16T19:10:03.371Z,1.10
2019-03-16T19:12:56.429Z,2.02
2019-03-16T19:15:49.226Z,1.75
2019-03-16T19:18:38.499Z,1.87
2019-03-16T19:21:31.766Z,1.90
2019-03-16T19:24:24.812Z,1.98
2019-03-16T19:27:19.104Z,2.27
2019-03-16T19:30:10.920Z,2.33
2019-03-16T19:33:03.979Z,1.92
2019-03-16T19:35:57.548Z,2.30
2019-03-16T19:38:50.861Z,2.00
2019-03-16T19:41:41.688Z,2.05
2019-03-16T19:44:41.832Z,1.90
2019-03-16T19:47:31.059Z,1.47
2019-03-16T19:50:24.110Z,1.40
2019-03-16T19:53:17.417Z,1.50
2019-03-16T19:56:10.473Z,1.82
2019-03-16T19:59:03.532Z,1.50
2019-03-16T20:01:56.327Z,1.57
2019-03-16T20:04:49.130Z,1.70
2019-03-16T20:07:42.707Z,2.17
2019-03-16T20:10:36.885Z,1.30
2019-03-16T20:13:29.836Z,1.42
2019-03-16T20:16:22.891Z,1.85
2019-03-16T20:19:15.948Z,1.50
2019-03-16T20:22:12.293Z,1.42
2019-03-16T20:25:03.340Z,1.50
2019-03-16T20:27:56.394Z,1.62
2019-03-16T20:30:49.192Z,1.70
2019-03-16T20:33:43.277Z,1.57
2019-03-16T20:36:37.096Z,1.20
2019-03-16T20:39:30.666Z,1.10
2019-03-16T20:42:25.512Z,1.60
2019-03-16T20:45:18.714Z,1.42
2019-03-16T20:48:12.648Z,1.60
2019-03-16T20:51:05.449Z,1.17
2019-03-16T20:53:58.505Z,1.20
2019-03-16T20:56:51.815Z,1.62
2019-03-16T20:59:44.615Z,1.40
2019-03-16T21:02:38.186Z,1.17
2019-03-16T21:05:31.242Z,1.45
2019-03-16T21:08:24.298Z,1.60
2019-03-16T21:11:17.111Z,1.65
2019-03-16T21:14:10.153Z,1.45
2019-03-16T21:17:03.209Z,2.02
2019-03-16T21:19:56.264Z,1.92
2019-03-16T21:22:49.319Z,1.82
2019-03-16T21:25:42.376Z,1.20
2019-03-16T21:28:35.688Z,1.40
2019-03-16T21:31:28.749Z,1.60
2019-03-16T21:34:21.809Z,1.82
2019-03-16T21:37:14.858Z,1.42
2019-03-16T21:40:07.659Z,1.92
2019-03-16T21:43:00.713Z,1.95
2019-03-16T21:45:54.025Z,1.90
2019-03-16T21:48:47.082Z,1.67
2019-03-16T21:51:40.139Z,1.90
2019-03-16T21:54:33.195Z,2.08
2019-03-16T21:57:27.202Z,2.00
2019-03-16T22:00:20.335Z,2.00
2019-03-16T22:03:13.129Z,2.10
2019-03-16T22:06:05.929Z,1.98
2019-03-16T22:08:58.725Z,2.25
2019-03-16T22:11:51.527Z,1.15
2019-03-16T22:14:45.360Z,1.95
2019-03-16T22:17:38.662Z,1.70
2019-03-16T22:20:29.033Z,1.70
2019-03-16T22:23:22.984Z,1.98
2019-03-16T22:26:12.463Z,1.75
2019-03-16T22:29:05.511Z,1.47
2019-03-16T22:31:58.566Z,1.75
2019-03-16T22:34:52.647Z,2.40
2019-03-16T22:37:45.962Z,1.77
2019-03-16T22:40:39.015Z,2.00
2019-03-16T22:43:31.818Z,2.10
2019-03-16T22:46:25.386Z,2.02
2019-03-16T22:49:25.870Z,1.60
2019-03-16T22:52:18.919Z,2.80
2019-03-16T22:55:11.721Z,1.60
2019-03-16T22:58:04.523Z,1.95
2019-03-16T23:01:00.139Z,1.50
2019-03-16T23:03:53.191Z,2.27
2019-03-16T23:06:45.990Z,1.80
2019-03-16T23:09:35.155Z,2.77
2019-03-16T23:12:28.532Z,2.10
2019-03-16T23:15:21.320Z,1.47
2019-03-16T23:18:14.631Z,2.22
2019-03-16T23:21:07.688Z,3.35
2019-03-16T23:24:00.493Z,2.17
2019-03-16T23:26:53.543Z,2.35
2019-03-16T23:29:46.344Z,2.22
2019-03-16T23:32:39.403Z,1.80
2019-03-16T23:35:32.454Z,2.15
2019-03-16T23:38:25.254Z,1.52
2019-03-16T23:41:18.313Z,2.10
2019-03-16T23:44:07.270Z,2.35
2019-03-16T23:47:00.328Z,2.70
2019-03-16T23:49:53.128Z,1.67
2019-03-16T23:52:46.442Z,2.75
2019-03-16T23:55:39.239Z,2.02
2019-03-16T23:58:32.296Z,2.50
